DONNELLS (DON)

Elevation: 4835' · STANISLAUS R basin · Operator: US Bureau of Reclamation

Provisional data, subject to change.
Query executed Wednesday at 6:22:19   clock

Select a sensor type for a plot of data.
Note: Reservoir Flows are daily averages.

Earlier

Date STORAGE    RES CHG    OUTFLOW   
 AF   AF   CFS  
08/18/2014 56913 -243 207
08/19/2014 56655 -258 172
08/20/2014 56438 -217 180
08/21/2014 56257 -181 155
08/22/2014 56048 -209 172
08/23/2014 55904 -144 136
08/24/2014 55743 -161 145
08/25/2014 55515 -228 191
08/26/2014 55310 e -205 153
08/27/2014 55096 -214 171
08/28/2014 54973 -123 119
08/29/2014 54726 -247 188
08/30/2014 54516 -210 167
08/31/2014 54334 -182 143
09/01/2014 54045 -289 213
09/02/2014 53685 -360 300
09/03/2014 53303 -382 138
09/04/2014 53146 -157 144
09/05/2014 52949 -197 164
09/06/2014 52745 -204 155
09/07/2014 52557 -188 161
09/08/2014 52331 -226 168
09/09/2014 52131 -200 170
09/10/2014 51815 -316 226
09/11/2014 51543 -272 192
09/12/2014 51255 -288 197
09/13/2014 51053 -202 141
09/14/2014 50875 -178 152
09/15/2014 50701 -174 143
09/16/2014 50544 -157 134
09/17/2014 -- -- --

Later | Latest

Warning! This data is preliminary and subject to revision.

Download Data Now Download Data Now | Show DON Map | Plot DON Data | 1 Month DON Data | Real-Time DON Data | DON Info